Latest Weather Observations for Beaudesert AWS

IDQ60801

Issued at 10:32 am EST Friday 27 February 2015 (issued every 30 minutes, with the page automatically refreshed every 10 minutes)

About weather observations | Map of weather stations | Latest weather observations for QLD | Other Formats
Station Details ID: 040983 Name: BEAUDESERT DRUMLEY STREET Lat: -27.97 Lon: 152.99 Height: 47.81 m
Data from the previous 72 hours. | See also: Recent months at Beaudesert AWS
Date/Time
EST
Temp
°C
App
Temp
°C
Dew
Point
Rel
Hum
%
Delta-T
°C
Wind Press
QNH
hPa
Press
MSL
hPa
Rain
since 9 am
mm
Dir
 
Spd
km/h
Gust
km/h
Spd
kts
Gust
kts
27/10:30am 25.9 28.4 19.1 66 4.4 WNW 4 6 2 3 1009.6 1009.3 0.0
27/10:00am 25.7 28.9 20.5 73 3.4 SW 4 7 2 4 1010.0 1009.7 0.0
27/09:30am 24.9 28.9 20.6 77 2.8 CALM 0 4 0 2 1010.0 1009.7 0.0
27/09:00am 23.9 28.1 21.0 84 1.9 CALM 0 0 0 0 1009.9 1009.6 3.0
27/08:30am 22.7 25.7 20.0 85 1.7 NW 4 6 2 3 1009.8 1009.5 3.0
27/08:00am 22.3 25.1 20.4 89 1.2 NW 6 7 3 4 1009.6 1009.3 3.0
27/07:30am 21.8 24.8 20.1 90 1.1 W 4 7 2 4 1009.4 1009.1 3.0
27/07:00am 21.5 24.8 20.0 91 1.0 ENE 2 4 1 2 1009.4 1009.1 3.0
27/06:30am 21.1 23.0 19.7 92 0.9 NE 9 13 5 7 1008.7 1008.4 3.0
27/06:00am 21.0 24.5 19.5 91 1.0 CALM 0 2 0 1 1009.8 1009.5 3.0
27/05:30am 20.8 23.3 19.1 90 1.1 E 4 6 2 3 1009.5 1009.2 2.8
27/05:00am 21.2 24.6 19.3 89 1.2 CALM 0 2 0 1 1009.2 1008.9 2.4
27/04:30am 21.3 23.9 19.2 88 1.3 S 4 6 2 3 1009.0 1008.7 0.6
27/04:00am 21.8 24.9 19.4 86 1.5 NNE 2 4 1 2 1008.5 1008.2 0.0
27/03:30am 21.6 24.2 19.3 87 1.5 S 4 6 2 3 1008.6 1008.3 0.0
27/03:00am 21.5 24.8 19.2 87 1.5 CALM 0 4 0 2 1007.9 1007.6 0.0
27/02:30am 22.0 25.5 19.5 86 1.6 CALM 0 0 0 0 1007.7 1007.4 0.0
27/02:00am 21.9 25.2 19.1 84 1.8 CALM 0 0 0 0 1008.2 1007.9 0.0
27/01:30am 21.9 24.6 19.5 86 1.5 SW 4 6 2 3 1008.3 1008.0 0.0
27/01:00am 22.1 25.6 19.6 86 1.6 CALM 0 0 0 0 1008.1 1007.8 0.0
27/12:30am 22.2 25.6 19.4 84 1.8 CALM 0 0 0 0 1008.9 1008.6 0.0
27/12:00am 22.3 25.6 19.1 82 2.0 CALM 0 0 0 0 1008.9 1008.6 0.0
 
Date/Time
EST
Temp
°C
App
Temp
°C
Dew
Point
Rel
Hum
%
Delta-T
°C
Wind Press
QNH
hPa
Press
MSL
hPa
Rain
since 9 am
mm
Dir
 
Spd
km/h
Gust
km/h
Spd
kts
Gust
kts
26/11:30pm 21.9 25.2 19.1 84 1.8 CALM 0 0 0 0 1009.1 1008.8 0.0
26/11:00pm 22.0 25.5 19.5 86 1.6 CALM 0 0 0 0 1009.4 1009.1 0.0
26/10:30pm 21.7 25.0 19.1 85 1.6 CALM 0 4 0 2 1009.4 1009.1 0.0
26/10:00pm 21.6 24.7 18.6 83 1.9 CALM 0 0 0 0 1009.4 1009.1 0.0
26/09:30pm 22.3 24.7 18.7 80 2.3 NE 4 6 2 3 1009.2 1008.9 0.0
26/09:00pm 22.3 25.4 18.7 80 2.3 CALM 0 0 0 0 1009.2 1008.9 0.0
26/08:30pm 23.2 26.1 18.3 74 3.1 CALM 0 4 0 2 1008.8 1008.5 0.0
26/08:00pm 24.0 26.1 18.0 69 3.8 N 4 6 2 3 1008.8 1008.5 0.0
26/07:30pm 24.1 26.2 18.1 69 3.8 NNE 4 6 2 3 1008.7 1008.4 0.0
26/07:00pm 24.1 26.4 17.8 68 4.0 NE 2 6 1 3 1008.2 1007.9 0.0
26/06:30pm 24.5 27.3 18.0 67 4.1 CALM 0 0 0 0 1008.1 1007.8 0.0
26/06:00pm 25.1 27.1 17.8 64 4.6 ESE 4 7 2 4 1007.4 1007.1 0.0
26/05:30pm 25.6 26.8 18.3 64 4.6 E 9 17 5 9 1007.2 1006.9 0.0
26/05:00pm 25.7 27.1 18.6 65 4.5 ENE 9 15 5 8 1007.1 1006.8 0.0
26/04:30pm 26.3 27.2 18.4 61 5.0 ENE 11 17 6 9 1007.2 1006.9 0.0
26/04:00pm 27.3 28.4 18.0 56 5.9 E 9 17 5 9 1007.2 1006.9 0.0
26/03:30pm 29.1 31.6 18.2 51 7.0 WNW 2 6 1 3 1007.0 1006.7 0.0
26/03:00pm 28.7 30.3 16.9 48 7.4 WNW 4 6 2 3 1007.0 1006.7 0.0
26/02:30pm 28.7 29.8 16.6 48 7.6 WSW 6 9 3 5 1007.2 1006.9 0.0
26/02:00pm 29.0 30.8 16.5 46 7.8 WNW 2 9 1 5 1007.5 1007.2 0.0
26/01:30pm 28.8 30.1 17.0 49 7.4 W 6 9 3 5 1008.1 1007.8 0.0
26/01:00pm 29.0 30.2 16.9 48 7.6 N 6 9 3 5 1008.5 1008.2 0.0
26/12:30pm 29.0 30.1 17.2 49 7.4 NW 7 11 4 6 1008.8 1008.5 0.0
26/12:00pm 29.1 31.0 17.6 50 7.3 NE 4 9 2 5 1009.1 1008.8 0.0
26/11:30am 28.7 29.9 16.9 48 7.4 NNW 6 13 3 7 1009.4 1009.1 0.0
26/11:00am 27.1 28.9 16.4 52 6.6 WSW 2 7 1 4 1009.8 1009.5 0.0
26/10:30am 27.1 28.4 16.1 51 6.8 WNW 4 7 2 4 1010.2 1009.9 0.0
26/10:00am 27.3 29.1 18.3 58 5.7 SE 6 15 3 8 1010.1 1009.8 0.0
26/09:30am 25.9 27.9 17.8 61 5.1 SSW 4 15 2 8 1010.3 1010.0 0.0
26/09:00am 25.1 27.3 18.3 66 4.3 SSW 4 9 2 5 1010.4 1010.1 0.0
26/08:30am 23.8 25.9 18.2 71 3.5 S 4 7 2 4 1010.3 1010.0 0.0
26/08:00am 22.4 25.3 18.2 77 2.6 CALM 0 2 0 1 1010.4 1010.1 0.0
26/07:30am 21.0 23.7 17.8 82 2.0 CALM 0 0 0 0 1010.5 1010.2 0.0
26/07:00am 19.8 22.4 17.4 86 1.5 CALM 0 0 0 0 1010.4 1010.1 0.0
26/06:30am 19.1 21.7 17.4 90 1.0 CALM 0 0 0 0 1010.2 1009.9 0.0
26/06:00am 17.9 20.3 16.9 94 0.6 CALM 0 0 0 0 1009.9 1009.6 0.0
26/05:30am 17.8 19.7 16.7 93 0.7 WNW 2 2 1 1 1009.6 1009.3 0.0
26/05:00am 18.0 20.0 16.9 93 0.7 E 2 2 1 1 1009.4 1009.1 0.0
26/04:30am 17.7 19.9 16.6 93 0.7 CALM 0 0 0 0 1009.4 1009.1 0.0
26/04:00am 17.7 19.5 16.4 92 0.8 ESE 2 4 1 2 1009.7 1009.4 0.0
26/03:30am 18.2 20.5 16.7 91 0.9 CALM 0 0 0 0 1009.6 1009.3 0.0
26/03:00am 18.4 20.5 17.1 92 0.8 ESE 2 4 1 2 1009.8 1009.5 0.0
26/02:30am 18.7 20.8 17.2 91 0.9 E 2 4 1 2 1010.1 1009.8 0.0
26/02:00am 19.4 22.2 17.9 91 0.9 CALM 0 0 0 0 1010.2 1009.9 0.0
26/01:30am 19.3 22.1 18.0 92 0.8 CALM 0 0 0 0 1010.7 1010.4 0.0
26/01:00am 18.8 21.2 17.1 90 1.0 CALM 0 0 0 0 1011.0 1010.7 0.0
26/12:30am 19.8 21.9 18.1 90 1.1 E 4 4 2 2 1010.9 1010.6 0.0
26/12:00am 19.3 21.9 17.6 90 1.0 CALM 0 0 0 0 1011.5 1011.2 0.0
 
Date/Time
EST
Temp
°C
App
Temp
°C
Dew
Point
Rel
Hum
%
Delta-T
°C
Wind Press
QNH
hPa
Press
MSL
hPa
Rain
since 9 am
mm
Dir
 
Spd
km/h
Gust
km/h
Spd
kts
Gust
kts
25/11:30pm 19.8 22.6 17.9 89 1.2 CALM 0 2 0 1 1011.6 1011.3 0.0
25/11:00pm 20.0 22.7 17.8 87 1.4 CALM 0 0 0 0 1012.1 1011.8 0.0
25/10:30pm 20.9 23.9 18.5 86 1.5 CALM 0 0 0 0 1012.2 1011.9 0.0
25/10:00pm 21.0 23.9 18.2 84 1.7 CALM 0 0 0 0 1012.2 1011.9 0.0
25/09:30pm 21.2 23.7 18.2 83 1.9 S 2 4 1 2 1012.2 1011.9 0.0
25/09:00pm 21.4 24.3 18.2 82 2.0 CALM 0 0 0 0 1011.8 1011.5 0.0
25/08:30pm 22.6 25.7 18.6 78 2.5 CALM 0 2 0 1 1011.9 1011.6 0.0
25/08:00pm 22.0 24.8 18.0 78 2.5 CALM 0 0 0 0 1011.9 1011.6 0.0
25/07:30pm 23.6 26.2 17.6 69 3.7 CALM 0 2 0 1 1011.5 1011.2 0.0
25/07:00pm 24.2 25.6 17.7 67 4.1 ESE 7 13 4 7 1011.0 1010.7 0.0
25/06:30pm 24.6 24.8 17.6 65 4.4 E 13 22 7 12 1009.9 1009.6 0.0
25/06:00pm 25.0 25.7 18.0 65 4.4 E 11 19 6 10 1010.0 1009.7 0.0
25/05:30pm 25.6 26.5 18.3 64 4.6 E 11 20 6 11 1009.6 1009.3 0.0
25/05:00pm 26.4 26.6 18.5 62 5.0 E 15 26 8 14 1009.5 1009.2 0.0
25/04:30pm 28.2 29.2 19.4 59 5.7 ESE 13 24 7 13 1009.5 1009.2 0.0
25/04:00pm 27.1 29.4 20.7 68 4.2 ENE 9 15 5 8 1009.5 1009.2 0.0
25/03:30pm 25.3 26.4 19.7 71 3.6 E 13 24 7 13 1009.6 1009.3 0.0
25/03:00pm 28.2 29.1 19.2 58 5.8 ENE 13 19 7 10 1009.3 1009.0 0.0
25/02:30pm 29.9 31.7 18.7 51 7.2 NE 7 17 4 9 1009.6 1009.3 0.0
25/02:00pm 29.6 30.7 18.1 50 7.4 SW 9 15 5 8 1010.0 1009.7 0.0
25/01:30pm 28.7 29.6 18.5 54 6.6 WSW 11 20 6 11 1010.4 1010.1 0.0
25/01:00pm 29.3 31.0 18.1 51 7.2 SSW 6 11 3 6 1010.8 1010.5 0.0
25/12:30pm 30.0 31.4 17.8 48 7.8 S 7 11 4 6 1011.0 1010.7 0.0
25/12:00pm 28.1 29.0 17.6 53 6.6 SSW 9 13 5 7 1011.3 1011.0 0.0
25/11:30am 27.7 29.5 18.7 58 5.8 WSW 7 17 4 9 1011.7 1011.4 0.0
25/11:00am 27.1 28.6 18.1 58 5.7 SSW 7 17 4 9 1012.1 1011.8 0.0
25/10:30am 27.0 28.3 17.5 56 6.0 SSE 7 15 4 8 1012.5 1012.2 0.0
25/10:00am 27.0 28.2 18.3 59 5.5 S 9 13 5 7 1012.7 1012.5 0.0
25/09:30am 26.4 27.7 17.5 58 5.6 SE 7 13 4 7 1012.7 1012.5 0.0
25/09:00am 26.2 28.0 18.3 61 5.0 SSE 6 9 3 5 1012.6 1012.4 0.2
25/08:30am 25.3 27.4 19.0 68 4.0 SSE 6 11 3 6 1012.6 1012.4 0.2
25/08:00am 23.7 26.6 19.8 79 2.5 W 4 7 2 4 1012.6 1012.4 0.2
25/07:30am 22.4 25.1 19.4 83 1.9 WNW 4 6 2 3 1012.5 1012.2 0.2
25/07:00am 21.3 24.4 19.6 90 1.1 SW 2 4 1 2 1012.3 1012.0 0.2
25/06:30am 19.9 23.0 18.6 92 0.8 CALM 0 0 0 0 1012.0 1011.7 0.2
25/06:00am 19.1 21.9 17.9 93 0.7 CALM 0 0 0 0 1011.9 1011.6 0.2
25/05:30am 19.1 21.9 17.9 93 0.7 CALM 0 0 0 0 1011.7 1011.4 0.2
25/05:00am 18.5 20.9 17.0 91 0.9 CALM 0 0 0 0 1011.3 1011.0 0.2
25/04:30am 19.4 22.3 18.1 92 0.8 CALM 0 0 0 0 1011.1 1010.8 0.0
25/04:00am 19.3 22.0 17.8 91 0.9 CALM 0 0 0 0 1010.8 1010.5 0.0
25/03:30am 19.7 22.5 18.0 90 1.1 CALM 0 0 0 0 1010.9 1010.6 0.0
25/03:00am 20.6 23.8 18.9 90 1.1 CALM 0 0 0 0 1010.9 1010.6 0.0
25/02:30am 21.1 24.4 19.0 88 1.3 CALM 0 2 0 1 1011.2 1010.9 0.0
25/02:00am 21.5 23.9 19.6 89 1.2 ESE 6 6 3 3 1011.4 1011.1 0.0
25/01:30am 21.6 23.8 19.2 86 1.5 SSE 6 9 3 5 1011.7 1011.4 0.0
25/01:00am 21.6 23.6 18.8 84 1.8 S 6 9 3 5 1011.6 1011.3 0.0
25/12:30am 21.0 24.2 18.9 88 1.3 CALM 0 0 0 0 1011.8 1011.5 0.0
25/12:00am 20.4 23.4 18.5 89 1.2 CALM 0 0 0 0 1012.1 1011.8 0.0
 
Date/Time
EST
Temp
°C
App
Temp
°C
Dew
Point
Rel
Hum
%
Delta-T
°C
Wind Press
QNH
hPa
Press
MSL
hPa
Rain
since 9 am
mm
Dir
 
Spd
km/h
Gust
km/h
Spd
kts
Gust
kts
24/11:30pm 20.4 22.6 18.3 88 1.3 W 4 6 2 3 1012.3 1012.0 0.0
24/11:00pm 20.9 23.9 18.5 86 1.5 CALM 0 0 0 0 1012.4 1012.1 0.0
24/10:30pm 21.6 24.8 18.8 84 1.8 CALM 0 0 0 0 1012.6 1012.4 0.0
24/10:00pm 21.6 24.8 18.8 84 1.8 CALM 0 0 0 0 1012.8 1012.6 0.0
24/09:30pm 21.7 24.6 18.1 80 2.2 CALM 0 0 0 0 1012.6 1012.4 0.0
24/09:00pm 22.8 25.9 18.6 77 2.7 CALM 0 2 0 1 1012.6 1012.4 0.0
24/08:30pm 23.8 25.6 18.4 72 3.4 SE 6 7 3 4 1012.6 1012.4 0.0
24/08:00pm 24.2 26.5 18.6 71 3.6 S 4 7 2 4 1012.2 1011.9 0.0
24/07:30pm 25.1 26.6 18.8 68 4.0 ESE 9 15 5 8 1011.7 1011.4 0.0
24/07:00pm 25.4 26.5 18.8 67 4.2 ESE 11 15 6 8 1011.5 1011.2 0.0
24/06:30pm 26.4 27.5 18.8 63 4.9 SE 11 15 6 8 1011.2 1010.9 0.0
24/06:00pm 27.2 29.1 19.0 61 5.3 SSE 7 11 4 6 1010.7 1010.4 0.0
24/05:30pm 27.2 29.0 19.5 62 5.0 ESE 9 15 5 8 1010.1 1009.8 0.0
24/05:00pm 28.1 29.4 19.3 58 5.7 ESE 11 19 6 10 1009.5 1009.2 0.0
24/04:30pm 28.9 31.0 18.9 54 6.5 SE 6 9 3 5 1009.2 1008.9 0.0
24/04:00pm 28.7 29.9 18.2 53 6.7 ESE 9 15 5 8 1008.9 1008.6 0.0
24/03:30pm 29.7 30.7 17.8 48 7.6 ESE 9 13 5 7 1008.8 1008.5 0.0
24/03:00pm 29.1 30.0 18.5 52 6.8 SE 11 24 6 13 1008.9 1008.6 0.0
24/02:30pm 29.5 31.4 18.6 52 7.0 E 6 15 3 8 1009.0 1008.7 0.0
24/02:00pm 29.5 30.0 18.3 51 7.2 S 13 20 7 11 1009.3 1009.0 0.0
24/01:30pm 29.3 31.1 18.7 52 6.8 S 7 11 4 6 1009.7 1009.4 0.0
24/01:00pm 29.6 31.7 19.0 53 6.9 E 6 11 3 6 1009.8 1009.5 0.0
24/12:30pm 27.5 29.7 19.6 62 5.1 E 7 13 4 7 1010.2 1009.9 0.0
24/12:00pm 28.3 30.0 18.1 54 6.5 SW 6 11 3 6 1010.5 1010.2 0.0
24/11:30am 28.3 30.3 19.2 57 5.9 S 7 13 4 7 1010.9 1010.6 0.0
24/11:00am 28.2 30.4 19.7 60 5.6 SSW 7 13 4 7 1011.4 1011.1 0.0

Other Formats:

Comma delimited format used in spreadsheet applications
http://www.bom.gov.au/fwo/IDQ60801/IDQ60801.95575.axf

JavaScript Object Notation format (JSON) in row-major order
http://www.bom.gov.au/fwo/IDQ60801/IDQ60801.95575.json